createdAt,value
2018-05-17T00:00:47.861Z,73.60
2018-05-17T00:03:15.369Z,73.60
2018-05-17T00:05:42.841Z,73.70
2018-05-17T00:08:10.300Z,74.10
2018-05-17T00:10:38.551Z,74.50
2018-05-17T00:13:06.009Z,74.40
2018-05-17T00:15:33.498Z,74.40
2018-05-17T00:18:01.712Z,74.80
2018-05-17T00:20:29.200Z,74.70
2018-05-17T00:22:56.659Z,74.90
2018-05-17T00:25:24.142Z,75.10
2018-05-17T00:27:51.612Z,75.40
2018-05-17T00:30:19.097Z,75.40
2018-05-17T00:32:46.573Z,75.70
2018-05-17T00:35:14.052Z,75.70
2018-05-17T00:37:43.195Z,76.00
2018-05-17T00:40:10.644Z,76.40
2018-05-17T00:42:38.116Z,76.40
2018-05-17T00:45:05.574Z,76.40
2018-05-17T00:47:33.054Z,76.60
2018-05-17T00:50:00.534Z,76.80
2018-05-17T00:52:28.028Z,77.00
2018-05-17T00:54:56.289Z,77.20
2018-05-17T00:57:24.521Z,77.20
2018-05-17T00:59:52.016Z,77.10
2018-05-17T01:02:20.249Z,77.40
2018-05-17T01:04:47.706Z,77.30
2018-05-17T01:07:15.176Z,77.30
2018-05-17T01:09:42.648Z,77.50
2018-05-17T01:12:10.134Z,77.80
2018-05-17T01:14:37.616Z,77.50
2018-05-17T01:17:05.090Z,77.50
2018-05-17T01:19:32.594Z,77.60
2018-05-17T01:22:00.053Z,77.90
2018-05-17T01:24:27.545Z,77.60
2018-05-17T01:26:55.005Z,77.90
2018-05-17T01:29:22.496Z,77.90
2018-05-17T01:31:49.985Z,77.80
2018-05-17T01:34:18.221Z,78.10
2018-05-17T01:36:57.349Z,78.00
2018-05-17T01:39:24.832Z,78.30
2018-05-17T01:41:53.056Z,78.70
2018-05-17T01:44:20.545Z,78.20
2018-05-17T01:46:48.002Z,78.10
2018-05-17T01:49:15.461Z,78.20
2018-05-17T01:51:42.968Z,78.00
2018-05-17T01:54:10.420Z,78.10
2018-05-17T01:56:37.904Z,78.20
2018-05-17T01:59:05.352Z,78.30
2018-05-17T02:01:32.844Z,78.40
2018-05-17T02:04:00.370Z,78.50
2018-05-17T02:06:27.869Z,78.60
2018-05-17T02:08:55.323Z,78.60
2018-05-17T02:11:22.804Z,78.40
2018-05-17T02:13:51.029Z,78.60
2018-05-17T02:16:18.490Z,78.50
2018-05-17T02:18:45.961Z,78.70
2018-05-17T02:21:13.456Z,78.70
2018-05-17T02:23:41.691Z,78.50
2018-05-17T02:26:09.152Z,78.50
2018-05-17T02:28:36.645Z,78.70
2018-05-17T02:31:04.870Z,78.90
2018-05-17T02:33:32.360Z,78.80
2018-05-17T02:35:59.827Z,79.10
2018-05-17T02:38:27.348Z,79.00
2018-05-17T02:40:54.825Z,79.10
2018-05-17T02:43:22.277Z,79.20
2018-05-17T02:45:49.764Z,79.30
2018-05-17T02:48:17.991Z,79.20
2018-05-17T02:50:45.472Z,79.10
2018-05-17T02:53:12.927Z,79.00
2018-05-17T02:55:40.398Z,79.00
2018-05-17T02:58:07.872Z,79.10
2018-05-17T03:00:36.164Z,79.10
2018-05-17T03:03:03.620Z,79.00
2018-05-17T03:05:31.076Z,79.50
2018-05-17T03:07:58.861Z,79.50
2018-05-17T03:10:26.432Z,79.30
2018-05-17T03:12:53.904Z,79.30
2018-05-17T03:15:21.388Z,79.40
2018-05-17T03:17:48.837Z,79.30
2018-05-17T03:20:16.332Z,79.50
2018-05-17T03:22:43.799Z,79.60
2018-05-17T03:25:11.261Z,79.80
2018-05-17T03:27:38.741Z,79.50
2018-05-17T03:30:06.969Z,79.70
2018-05-17T03:32:34.453Z,79.60
2018-05-17T03:35:01.924Z,79.30
2018-05-17T03:37:29.399Z,79.60
2018-05-17T03:39:56.861Z,79.40
2018-05-17T03:42:24.355Z,79.60
2018-05-17T03:44:52.584Z,79.60
2018-05-17T03:47:20.037Z,79.40
2018-05-17T03:49:47.515Z,79.60
2018-05-17T03:52:14.969Z,79.60
2018-05-17T03:54:42.464Z,79.50
2018-05-17T03:57:09.927Z,79.30
2018-05-17T03:59:37.480Z,79.20
2018-05-17T04:02:16.840Z,79.40
2018-05-17T04:04:56.204Z,79.40
2018-05-17T04:07:24.458Z,79.20
2018-05-17T04:09:51.917Z,79.20
2018-05-17T04:12:19.394Z,79.20
2018-05-17T04:14:46.845Z,79.20
2018-05-17T04:17:14.312Z,79.20
2018-05-17T04:19:41.864Z,79.40
2018-05-17T04:22:09.340Z,79.30
2018-05-17T04:24:36.852Z,79.40
2018-05-17T04:27:04.332Z,79.50
2018-05-17T04:29:31.821Z,79.20
2018-05-17T04:31:59.272Z,79.10
2018-05-17T04:34:26.758Z,79.10
2018-05-17T04:36:55.003Z,78.60
2018-05-17T04:39:22.481Z,78.50
2018-05-17T04:41:50.725Z,78.50
2018-05-17T04:44:18.181Z,78.50
2018-05-17T04:46:46.415Z,78.10
2018-05-17T04:49:13.864Z,78.20
2018-05-17T04:51:41.373Z,78.00
2018-05-17T04:54:08.832Z,78.20
2018-05-17T04:56:36.300Z,77.90
2018-05-17T04:59:03.767Z,78.00
2018-05-17T05:01:32.012Z,77.80
2018-05-17T05:03:59.491Z,77.80
2018-05-17T05:06:26.956Z,77.70
2018-05-17T05:08:54.452Z,77.60
2018-05-17T05:11:21.928Z,77.50
2018-05-17T05:13:49.470Z,77.10
2018-05-17T05:16:16.968Z,76.60
2018-05-17T05:18:44.460Z,76.60
2018-05-17T05:21:11.933Z,76.60
2018-05-17T05:23:39.423Z,76.40
2018-05-17T05:26:06.911Z,76.20
2018-05-17T05:28:34.388Z,75.90
2018-05-17T05:31:01.852Z,76.00
2018-05-17T05:33:29.340Z,76.00
2018-05-17T05:35:56.856Z,75.90
2018-05-17T05:38:25.110Z,75.70
2018-05-17T05:40:52.622Z,75.70
2018-05-17T05:43:20.114Z,75.80
2018-05-17T05:45:47.584Z,75.80
2018-05-17T05:48:15.040Z,75.70
2018-05-17T05:50:42.522Z,75.80
2018-05-17T05:53:10.780Z,75.30
2018-05-17T05:55:38.349Z,75.30
2018-05-17T05:58:05.789Z,75.40
2018-05-17T06:00:33.257Z,75.10
2018-05-17T06:03:00.787Z,74.70
2018-05-17T06:05:28.277Z,74.50
2018-05-17T06:07:55.736Z,74.30
2018-05-17T06:10:23.187Z,74.00
2018-05-17T06:12:50.658Z,74.00
2018-05-17T06:15:18.916Z,74.20
2018-05-17T06:17:46.392Z,74.10
2018-05-17T06:20:13.884Z,74.30
2018-05-17T06:22:41.376Z,74.20
2018-05-17T06:25:08.868Z,74.10
2018-05-17T06:27:36.359Z,73.70
2018-05-17T06:30:03.818Z,73.60
2018-05-17T06:32:31.318Z,73.20
2018-05-17T06:34:58.785Z,73.10
2018-05-17T06:37:26.243Z,73.60
2018-05-17T06:39:53.712Z,73.60
2018-05-17T06:42:21.416Z,73.60
2018-05-17T06:44:48.907Z,73.20
2018-05-17T06:47:17.686Z,73.10
2018-05-17T06:49:45.827Z,72.60
2018-05-17T06:52:13.570Z,72.50
2018-05-17T06:54:43.806Z,72.20
2018-05-17T06:57:11.331Z,71.80
2018-05-17T06:59:38.806Z,71.50
2018-05-17T07:02:06.272Z,71.50
2018-05-17T07:04:34.001Z,70.90
2018-05-17T07:07:03.270Z,71.20
2018-05-17T07:09:32.958Z,71.40
2018-05-17T07:12:01.217Z,70.50
2018-05-17T07:14:28.713Z,70.50
2018-05-17T07:16:56.175Z,70.10
2018-05-17T07:19:23.713Z,69.80
2018-05-17T07:21:52.052Z,69.30
2018-05-17T07:24:28.552Z,69.00
2018-05-17T07:26:56.273Z,68.40
2018-05-17T07:29:23.752Z,69.00
2018-05-17T07:31:51.237Z,69.30
2018-05-17T07:34:18.755Z,69.50
2018-05-17T07:36:46.204Z,69.10
2018-05-17T07:39:13.674Z,68.90
2018-05-17T07:41:41.218Z,68.80
2018-05-17T07:44:08.830Z,68.60
2018-05-17T07:46:36.410Z,68.30
2018-05-17T07:49:03.817Z,68.10
2018-05-17T07:51:31.268Z,68.00
2018-05-17T07:53:58.756Z,67.70
2018-05-17T07:56:26.221Z,67.40
2018-05-17T07:58:53.696Z,67.30
2018-05-17T08:01:21.160Z,67.20
2018-05-17T08:03:48.637Z,67.10
2018-05-17T08:06:16.116Z,67.10
2018-05-17T08:08:43.572Z,66.80
2018-05-17T08:11:11.066Z,66.90
2018-05-17T08:13:38.529Z,66.70
2018-05-17T08:16:06.020Z,66.20
2018-05-17T08:18:33.490Z,66.30
2018-05-17T08:21:00.976Z,66.30
2018-05-17T08:23:28.429Z,66.00
2018-05-17T08:25:55.928Z,66.40
2018-05-17T08:28:23.396Z,66.20
2018-05-17T08:30:50.851Z,65.90
2018-05-17T08:33:18.344Z,65.40
2018-05-17T08:35:45.806Z,65.30
2018-05-17T08:38:13.244Z,64.50
2018-05-17T08:40:40.724Z,64.40
2018-05-17T08:43:08.225Z,64.70
2018-05-17T08:45:36.957Z,64.00
2018-05-17T08:48:04.413Z,64.00
2018-05-17T08:50:31.885Z,63.20
2018-05-17T08:52:59.343Z,63.40
2018-05-17T08:55:26.869Z,63.30
2018-05-17T08:57:54.323Z,62.70
2018-05-17T09:00:21.834Z,62.20
2018-05-17T09:02:50.094Z,61.80
2018-05-17T09:05:17.592Z,61.80
2018-05-17T09:07:45.123Z,61.80
2018-05-17T09:10:12.644Z,62.40
2018-05-17T09:12:40.124Z,62.00
2018-05-17T09:15:08.387Z,61.10
2018-05-17T09:17:35.858Z,61.10
2018-05-17T09:20:03.364Z,60.20
2018-05-17T09:22:30.846Z,59.60
2018-05-17T09:24:58.317Z,59.50
2018-05-17T09:27:25.853Z,59.10
2018-05-17T09:29:53.321Z,58.60
2018-05-17T09:32:20.787Z,59.10
2018-05-17T09:34:48.267Z,59.50
2018-05-17T09:37:15.720Z,59.50
2018-05-17T09:39:43.407Z,58.20
2018-05-17T09:42:10.855Z,57.20
2018-05-17T09:44:38.353Z,57.30
2018-05-17T09:47:07.774Z,56.80
2018-05-17T09:49:35.220Z,56.90
2018-05-17T09:52:02.710Z,57.20
2018-05-17T09:54:30.192Z,57.60
2018-05-17T09:56:57.712Z,57.60
2018-05-17T09:59:25.182Z,57.00
2018-05-17T10:01:52.951Z,56.80
2018-05-17T10:04:20.420Z,57.00
2018-05-17T10:06:47.911Z,56.80
2018-05-17T10:09:15.371Z,57.20
2018-05-17T10:11:42.856Z,56.70
2018-05-17T10:14:10.452Z,56.50
2018-05-17T10:16:37.927Z,56.90
2018-05-17T10:19:05.455Z,57.00
2018-05-17T10:21:34.598Z,56.80
2018-05-17T10:24:02.056Z,56.80
2018-05-17T10:26:29.946Z,56.70
2018-05-17T10:28:57.924Z,56.10
2018-05-17T10:31:26.164Z,56.40
2018-05-17T10:33:53.632Z,56.40
2018-05-17T10:36:21.094Z,56.50
2018-05-17T10:38:48.584Z,55.80
2018-05-17T10:41:16.812Z,55.30
2018-05-17T10:43:45.031Z,55.20
2018-05-17T10:46:13.148Z,55.20
2018-05-17T10:48:40.597Z,55.50
2018-05-17T10:51:08.089Z,55.50
2018-05-17T10:53:36.708Z,54.80
2018-05-17T10:56:04.177Z,54.80
2018-05-17T10:58:31.644Z,54.70
2018-05-17T11:00:59.112Z,54.40
2018-05-17T11:03:26.664Z,53.30
2018-05-17T11:05:54.133Z,52.60
2018-05-17T11:08:21.586Z,52.70
2018-05-17T11:10:49.095Z,52.70
2018-05-17T11:13:16.573Z,52.20
2018-05-17T11:15:44.888Z,52.50
2018-05-17T11:18:12.385Z,52.40
2018-05-17T11:20:39.837Z,52.50
2018-05-17T11:23:07.324Z,53.00
2018-05-17T11:25:35.715Z,53.40
2018-05-17T11:28:03.266Z,53.40
2018-05-17T11:30:31.480Z,53.50
2018-05-17T11:32:59.033Z,53.50
2018-05-17T11:35:26.436Z,53.90
2018-05-17T11:37:53.923Z,53.60
2018-05-17T11:40:21.428Z,54.00
2018-05-17T11:42:48.892Z,53.60
2018-05-17T11:45:20.164Z,53.70
2018-05-17T11:47:50.762Z,54.30
2018-05-17T11:50:19.010Z,55.00
2018-05-17T11:52:46.461Z,54.80
2018-05-17T11:55:14.031Z,54.90
2018-05-17T11:57:41.478Z,55.50
2018-05-17T12:00:09.312Z,56.00
2018-05-17T12:02:36.820Z,56.70
2018-05-17T12:05:04.251Z,57.00
2018-05-17T12:07:32.486Z,57.80
2018-05-17T12:09:59.989Z,57.80
2018-05-17T12:12:27.479Z,58.40
2018-05-17T12:14:55.331Z,58.40
2018-05-17T12:17:22.832Z,58.70
2018-05-17T12:19:50.330Z,59.10
2018-05-17T12:22:17.798Z,59.40
2018-05-17T12:24:45.284Z,59.40
2018-05-17T12:27:13.517Z,59.90
2018-05-17T12:29:40.989Z,59.80
2018-05-17T12:32:09.468Z,60.10
2018-05-17T12:34:36.960Z,60.80
2018-05-17T12:37:05.229Z,61.40
2018-05-17T12:39:32.683Z,61.30
2018-05-17T12:42:00.141Z,61.30
2018-05-17T12:44:27.634Z,61.60
2018-05-17T12:46:55.111Z,61.60
2018-05-17T12:49:22.570Z,61.70
2018-05-17T12:51:50.092Z,62.00
2018-05-17T12:54:17.557Z,62.20
2018-05-17T12:56:45.150Z,62.30
2018-05-17T12:59:12.523Z,62.50
2018-05-17T13:01:40.028Z,62.80
2018-05-17T13:04:07.536Z,62.90
2018-05-17T13:06:35.035Z,63.40
2018-05-17T13:09:02.517Z,63.60
2018-05-17T13:11:29.984Z,63.80
2018-05-17T13:13:58.224Z,64.40
2018-05-17T13:16:25.709Z,64.40
2018-05-17T13:18:54.017Z,64.50
2018-05-17T13:21:21.490Z,64.40
2018-05-17T13:23:48.965Z,64.60
2018-05-17T13:26:16.448Z,64.70
2018-05-17T13:28:43.901Z,64.70
2018-05-17T13:31:11.376Z,65.30
2018-05-17T13:33:39.632Z,66.70
2018-05-17T13:36:07.118Z,65.90
2018-05-17T13:38:35.370Z,66.70
2018-05-17T13:41:02.860Z,66.60
2018-05-17T13:43:31.113Z,66.90
2018-05-17T13:45:58.613Z,66.80
2018-05-17T13:48:26.088Z,67.10
2018-05-17T13:50:53.555Z,66.80
2018-05-17T13:53:21.160Z,67.30
2018-05-17T13:55:49.403Z,67.70
2018-05-17T13:58:17.060Z,67.60
2018-05-17T14:00:45.525Z,68.00
2018-05-17T14:03:13.234Z,68.00
2018-05-17T14:05:41.509Z,68.40
2018-05-17T14:08:09.770Z,68.40
2018-05-17T14:10:37.245Z,68.40
2018-05-17T14:13:04.720Z,68.60
2018-05-17T14:15:32.262Z,68.90
2018-05-17T14:17:59.719Z,68.90
2018-05-17T14:20:27.173Z,69.00
2018-05-17T14:22:54.716Z,69.10
2018-05-17T14:25:22.192Z,69.20
2018-05-17T14:27:49.686Z,69.30
2018-05-17T14:30:17.163Z,69.30
2018-05-17T14:32:44.638Z,69.40
2018-05-17T14:35:12.157Z,69.60
2018-05-17T14:37:40.415Z,69.80
2018-05-17T14:40:07.896Z,69.80
2018-05-17T14:42:35.492Z,69.80
2018-05-17T14:45:02.985Z,70.60
2018-05-17T14:47:30.461Z,70.00
2018-05-17T14:49:58.729Z,70.20
2018-05-17T14:52:26.215Z,70.20
2018-05-17T14:54:54.460Z,70.70
2018-05-17T14:57:21.952Z,70.70
2018-05-17T14:59:49.452Z,70.90
2018-05-17T15:02:16.904Z,70.90
2018-05-17T15:04:44.359Z,70.90
2018-05-17T15:07:11.820Z,70.80
2018-05-17T15:09:39.316Z,70.90
2018-05-17T15:12:07.544Z,71.30
2018-05-17T15:14:35.024Z,71.30
2018-05-17T15:17:02.485Z,71.50
2018-05-17T15:19:29.961Z,71.70
2018-05-17T15:21:57.408Z,71.70
2018-05-17T15:24:24.888Z,71.90
2018-05-17T15:26:52.374Z,71.90
2018-05-17T15:29:19.855Z,71.90
2018-05-17T15:31:47.324Z,72.10
2018-05-17T15:34:14.811Z,72.10
2018-05-17T15:36:43.086Z,72.60
2018-05-17T15:39:10.564Z,72.40
2018-05-17T15:41:38.127Z,72.50
2018-05-17T15:44:05.532Z,72.40
2018-05-17T15:46:33.013Z,72.50
2018-05-17T15:49:00.471Z,72.60
2018-05-17T15:51:28.714Z,73.10
2018-05-17T15:53:56.208Z,73.00
2018-05-17T15:56:24.436Z,73.60
2018-05-17T15:58:59.708Z,73.60
2018-05-17T16:01:29.261Z,73.60
2018-05-17T16:03:57.459Z,73.60
2018-05-17T16:06:25.275Z,73.60
2018-05-17T16:08:52.761Z,73.50
2018-05-17T16:11:20.734Z,73.50
2018-05-17T16:13:48.441Z,73.50
2018-05-17T16:16:15.907Z,73.50
2018-05-17T16:18:43.396Z,73.50
2018-05-17T16:21:11.787Z,73.90
2018-05-17T16:23:39.258Z,73.80
2018-05-17T16:26:06.785Z,74.00
2018-05-17T16:28:35.206Z,73.80
2018-05-17T16:31:02.688Z,73.90
2018-05-17T16:33:30.167Z,73.90
2018-05-17T16:35:57.637Z,74.00
2018-05-17T16:38:25.100Z,74.10
2018-05-17T16:40:52.609Z,74.30
2018-05-17T16:43:20.947Z,74.20
2018-05-17T16:45:48.499Z,74.10
2018-05-17T16:48:16.839Z,74.70
2018-05-17T16:50:44.276Z,74.70
2018-05-17T16:53:12.618Z,74.50
2018-05-17T16:55:39.992Z,74.50
2018-05-17T16:58:07.485Z,74.60
2018-05-17T17:00:34.972Z,74.60
2018-05-17T17:03:02.423Z,74.60
2018-05-17T17:05:29.900Z,74.60
2018-05-17T17:07:57.413Z,74.50
2018-05-17T17:10:25.692Z,74.80
2018-05-17T17:12:53.180Z,74.80
2018-05-17T17:15:20.645Z,74.90
2018-05-17T17:17:48.267Z,74.90
2018-05-17T17:20:15.668Z,75.00
2018-05-17T17:22:43.156Z,75.30
2018-05-17T17:25:10.677Z,75.50
2018-05-17T17:27:38.157Z,76.40
2018-05-17T17:30:05.629Z,75.70
2018-05-17T17:32:33.112Z,76.00
2018-05-17T17:35:00.614Z,76.00
2018-05-17T17:37:28.067Z,76.50
2018-05-17T17:39:55.562Z,76.40
2018-05-17T17:42:23.012Z,76.50
2018-05-17T17:44:50.508Z,76.70
2018-05-17T17:47:17.989Z,76.80
2018-05-17T17:49:45.475Z,76.90
2018-05-17T17:52:12.956Z,76.80
2018-05-17T17:54:41.209Z,77.30
2018-05-17T17:57:08.670Z,77.20
2018-05-17T17:59:36.193Z,77.30
2018-05-17T18:02:03.655Z,77.50
2018-05-17T18:04:31.145Z,77.40
2018-05-17T18:06:58.609Z,77.40
2018-05-17T18:09:26.093Z,77.60
2018-05-17T18:11:54.352Z,77.80
2018-05-17T18:14:21.890Z,77.80
2018-05-17T18:16:49.388Z,77.90
2018-05-17T18:19:17.626Z,78.10
2018-05-17T18:21:45.122Z,78.00
2018-05-17T18:24:12.600Z,78.20
2018-05-17T18:26:40.085Z,78.50
2018-05-17T18:29:07.569Z,78.60
2018-05-17T18:31:35.131Z,78.70
2018-05-17T18:34:02.605Z,79.00
2018-05-17T18:36:30.825Z,79.10
2018-05-17T18:38:58.305Z,79.10
2018-05-17T18:41:25.769Z,79.30
2018-05-17T18:43:53.252Z,79.50
2018-05-17T18:46:21.481Z,79.80
2018-05-17T18:48:48.984Z,79.80
2018-05-17T18:51:16.440Z,79.90
2018-05-17T18:53:44.362Z,80.00
2018-05-17T18:56:12.631Z,80.20
2018-05-17T18:58:40.091Z,80.20
2018-05-17T19:01:07.627Z,80.30
2018-05-17T19:03:35.905Z,80.50
2018-05-17T19:06:03.423Z,80.30
2018-05-17T19:08:30.893Z,80.40
2018-05-17T19:10:59.127Z,80.60
2018-05-17T19:13:26.636Z,80.60
2018-05-17T19:15:54.107Z,80.70
2018-05-17T19:18:21.650Z,81.00
2018-05-17T19:20:49.128Z,81.00
2018-05-17T19:23:16.905Z,81.20
2018-05-17T19:25:44.439Z,81.20
2018-05-17T19:28:11.881Z,81.20
2018-05-17T19:30:39.377Z,82.00
2018-05-17T19:33:06.852Z,81.30
2018-05-17T19:35:34.361Z,81.30
2018-05-17T19:38:02.349Z,81.50
2018-05-17T19:40:30.037Z,81.40
2018-05-17T19:42:57.547Z,81.50
2018-05-17T19:45:25.247Z,81.70
2018-05-17T19:47:52.692Z,81.70
2018-05-17T19:50:20.169Z,81.70
2018-05-17T19:52:47.790Z,81.80
2018-05-17T19:55:15.164Z,81.80
2018-05-17T19:57:42.760Z,82.00
2018-05-17T20:00:10.232Z,81.90
2018-05-17T20:02:37.713Z,82.00
2018-05-17T20:05:06.074Z,82.00
2018-05-17T20:07:33.452Z,82.00
2018-05-17T20:10:00.912Z,82.00
2018-05-17T20:12:28.418Z,82.00
2018-05-17T20:14:55.897Z,82.00
2018-05-17T20:17:23.384Z,82.00
2018-05-17T20:19:50.990Z,82.20
2018-05-17T20:22:18.474Z,82.30
2018-05-17T20:24:45.933Z,82.30
2018-05-17T20:27:13.413Z,82.40
2018-05-17T20:29:40.873Z,82.50
2018-05-17T20:32:08.358Z,82.80
2018-05-17T20:34:35.837Z,82.60
2018-05-17T20:37:03.292Z,82.60
2018-05-17T20:39:30.770Z,82.80
2018-05-17T20:41:58.224Z,82.70
2018-05-17T20:44:25.741Z,82.90
2018-05-17T20:46:53.291Z,82.70
2018-05-17T20:49:20.789Z,82.70
2018-05-17T20:51:48.305Z,82.80
2018-05-17T20:54:15.776Z,82.90
2018-05-17T20:56:43.275Z,83.00
2018-05-17T20:59:10.729Z,82.90
2018-05-17T21:01:38.284Z,83.00
2018-05-17T21:04:05.765Z,83.10
2018-05-17T21:06:34.008Z,83.20
2018-05-17T21:09:02.260Z,83.20
2018-05-17T21:11:29.748Z,83.20
2018-05-17T21:13:57.280Z,83.20
2018-05-17T21:16:24.749Z,83.20
2018-05-17T21:18:52.299Z,83.10
2018-05-17T21:21:19.753Z,83.10
2018-05-17T21:23:47.983Z,83.60
2018-05-17T21:26:15.488Z,83.40
2018-05-17T21:28:42.968Z,83.40
2018-05-17T21:31:10.493Z,83.10
2018-05-17T21:33:38.016Z,83.20
2018-05-17T21:36:05.509Z,83.10
2018-05-17T21:38:33.125Z,83.40
2018-05-17T21:41:01.350Z,83.20
2018-05-17T21:43:28.844Z,83.20
2018-05-17T21:45:56.348Z,83.20
2018-05-17T21:48:23.908Z,83.20
2018-05-17T21:50:51.368Z,83.10
2018-05-17T21:53:18.880Z,83.20
2018-05-17T21:55:46.336Z,83.20
2018-05-17T21:58:13.807Z,83.00
2018-05-17T22:00:41.296Z,83.00
2018-05-17T22:03:08.853Z,83.10
2018-05-17T22:05:36.340Z,82.90
2018-05-17T22:08:03.860Z,82.80
2018-05-17T22:10:31.319Z,82.90
2018-05-17T22:12:58.813Z,82.90
2018-05-17T22:15:26.273Z,82.80
2018-05-17T22:17:53.769Z,82.70
2018-05-17T22:20:22.044Z,82.50
2018-05-17T22:22:50.327Z,82.20
2018-05-17T22:25:18.585Z,82.20
2018-05-17T22:27:46.111Z,82.20
2018-05-17T22:30:13.604Z,82.20
2018-05-17T22:32:41.131Z,82.10
2018-05-17T22:35:08.614Z,82.20
2018-05-17T22:37:36.149Z,82.20
2018-05-17T22:40:03.639Z,82.20
2018-05-17T22:42:31.116Z,82.20
2018-05-17T22:44:59.380Z,82.20
2018-05-17T22:47:27.725Z,82.30
2018-05-17T22:49:55.225Z,82.40
2018-05-17T22:52:22.672Z,82.40
2018-05-17T22:54:50.995Z,82.70
2018-05-17T22:57:30.392Z,82.50
2018-05-17T22:59:57.897Z,82.50
2018-05-17T23:02:25.384Z,82.50
2018-05-17T23:04:52.872Z,82.50
2018-05-17T23:07:21.108Z,82.50
2018-05-17T23:09:48.632Z,82.40
2018-05-17T23:12:16.165Z,82.50
2018-05-17T23:14:43.660Z,82.40
2018-05-17T23:17:11.226Z,82.50
2018-05-17T23:19:38.704Z,82.60
2018-05-17T23:22:06.174Z,82.70
2018-05-17T23:24:33.692Z,82.50
2018-05-17T23:27:01.184Z,82.40
2018-05-17T23:29:28.653Z,82.40
2018-05-17T23:31:56.913Z,82.70
2018-05-17T23:34:24.414Z,82.60
2018-05-17T23:36:51.956Z,82.50
2018-05-17T23:39:19.420Z,82.40
2018-05-17T23:41:46.941Z,82.40
2018-05-17T23:44:14.396Z,82.30
2018-05-17T23:46:41.882Z,82.30
2018-05-17T23:49:10.124Z,82.20
2018-05-17T23:51:37.628Z,82.20
2018-05-17T23:54:05.130Z,82.20
2018-05-17T23:56:32.633Z,82.20
2018-05-17T23:59:00.888Z,82.30
